createdAt,value
2022-10-13T00:02:03.688Z,15.57
2022-10-13T00:04:50.472Z,14.40
2022-10-13T00:07:37.256Z,12.32
2022-10-13T00:10:25.391Z,11.10
2022-10-13T00:13:12.637Z,7.35
2022-10-13T00:16:02.120Z,8.02
2022-10-13T00:18:49.960Z,12.93
2022-10-13T00:24:23.433Z,25.13
2022-10-13T00:27:10.186Z,27.05
2022-10-13T00:29:57.212Z,22.60
2022-10-13T00:32:44.022Z,24.20
2022-10-13T00:35:30.825Z,20.88
2022-10-13T00:38:19.700Z,22.48
2022-10-13T00:41:06.744Z,21.88
2022-10-13T00:44:19.833Z,16.20
2022-10-13T00:47:06.745Z,10.38
2022-10-13T00:49:55.011Z,10.27
2022-10-13T00:52:42.833Z,6.43
2022-10-13T00:58:23.070Z,9.60
2022-10-13T01:01:10.002Z,7.05
2022-10-13T01:03:57.079Z,7.87
2022-10-13T01:06:44.116Z,9.70
2022-10-13T01:09:37.457Z,7.33
2022-10-13T01:12:32.888Z,8.52
2022-10-13T01:15:33.049Z,7.22
2022-10-13T01:18:51.432Z,8.48
2022-10-13T01:21:50.384Z,9.13
2022-10-13T01:24:56.547Z,11.30
2022-10-13T01:28:04.695Z,11.02
2022-10-13T01:31:03.101Z,7.07
2022-10-13T01:36:52.793Z,8.00
2022-10-13T01:40:07.839Z,12.05
2022-10-13T01:43:07.788Z,7.10
2022-10-13T01:46:08.324Z,9.55
2022-10-13T01:48:58.187Z,9.80
2022-10-13T01:51:46.485Z,10.88
2022-10-13T01:54:33.680Z,7.60
2022-10-13T01:57:33.201Z,7.28
2022-10-13T02:00:22.637Z,6.75
2022-10-13T02:03:46.829Z,6.43
2022-10-13T02:06:39.973Z,6.15
2022-10-13T02:09:59.991Z,6.60
2022-10-13T02:12:52.133Z,5.93
2022-10-13T02:15:49.377Z,6.22
2022-10-13T02:18:37.011Z,6.47
2022-10-13T02:21:24.397Z,7.38
2022-10-13T02:24:12.403Z,6.22
2022-10-13T02:26:59.577Z,7.72
2022-10-13T02:29:55.346Z,6.22
2022-10-13T02:32:42.384Z,6.82
2022-10-13T02:35:29.986Z,5.97
2022-10-13T02:38:16.937Z,5.53
2022-10-13T02:41:03.729Z,11.17
2022-10-13T02:43:50.734Z,7.38
2022-10-13T02:46:37.477Z,7.80
2022-10-13T02:49:24.316Z,9.60
2022-10-13T02:52:11.105Z,6.50
2022-10-13T02:54:58.119Z,6.13
2022-10-13T02:57:44.898Z,6.77
2022-10-13T03:00:31.708Z,8.20
2022-10-13T03:03:18.499Z,8.13
2022-10-13T03:06:06.080Z,11.18
2022-10-13T03:08:52.792Z,6.68
2022-10-13T03:11:39.709Z,7.60
2022-10-13T03:14:26.453Z,6.40
2022-10-13T03:17:13.631Z,5.22
2022-10-13T03:20:00.562Z,7.40
2022-10-13T03:22:49.761Z,7.50
2022-10-13T03:25:38.424Z,7.25
2022-10-13T03:28:25.363Z,8.93
2022-10-13T03:31:12.811Z,10.57
2022-10-13T03:33:59.607Z,6.75
2022-10-13T03:36:46.345Z,6.80
2022-10-13T03:39:33.141Z,6.80
2022-10-13T03:42:20.190Z,6.85
2022-10-13T03:45:07.753Z,7.65
2022-10-13T03:47:54.483Z,10.43
2022-10-13T03:50:41.365Z,10.07
2022-10-13T03:53:28.076Z,8.68
2022-10-13T03:56:17.967Z,8.38
2022-10-13T03:59:05.124Z,5.97
2022-10-13T04:01:52.005Z,8.52
2022-10-13T04:04:39.348Z,7.82
2022-10-13T04:07:26.160Z,9.50
2022-10-13T04:10:13.354Z,7.90
2022-10-13T04:13:00.245Z,9.38
2022-10-13T04:15:47.010Z,9.30
2022-10-13T04:18:34.371Z,10.05
2022-10-13T04:21:22.657Z,8.35
2022-10-13T04:24:12.128Z,10.20
2022-10-13T04:26:58.904Z,7.97
2022-10-13T04:29:45.795Z,7.13
2022-10-13T04:32:32.807Z,8.52
2022-10-13T04:35:19.588Z,8.67
2022-10-13T04:38:06.376Z,7.57
2022-10-13T04:40:53.306Z,8.15
2022-10-13T04:43:40.267Z,8.93
2022-10-13T04:46:27.500Z,7.37
2022-10-13T04:49:15.374Z,7.28
2022-10-13T04:54:50.178Z,8.50
2022-10-13T04:57:38.429Z,7.00
2022-10-13T05:00:25.267Z,6.47
2022-10-13T05:03:13.408Z,8.02
2022-10-13T05:06:00.228Z,7.40
2022-10-13T05:08:48.442Z,8.85
2022-10-13T05:11:35.192Z,7.43
2022-10-13T05:14:24.407Z,7.68
2022-10-13T05:17:11.222Z,14.02
2022-10-13T05:19:59.432Z,14.45
2022-10-13T05:22:46.178Z,14.02
2022-10-13T05:25:36.419Z,11.40
2022-10-13T05:28:23.206Z,12.40
2022-10-13T05:31:13.455Z,7.30
2022-10-13T05:34:00.449Z,7.72
2022-10-13T05:36:48.417Z,7.03
2022-10-13T05:39:35.185Z,5.25
2022-10-13T05:42:23.537Z,6.90
2022-10-13T05:45:11.192Z,6.05
2022-10-13T05:47:59.424Z,5.53
2022-10-13T05:50:46.189Z,4.95
2022-10-13T05:53:38.446Z,5.10
2022-10-13T05:56:30.343Z,5.72
2022-10-13T05:59:26.061Z,5.85
2022-10-13T06:02:15.916Z,5.45
2022-10-13T06:05:06.380Z,4.82
2022-10-13T06:07:55.007Z,5.82
2022-10-13T06:10:44.408Z,6.30
2022-10-13T06:13:31.322Z,5.38
2022-10-13T06:16:19.448Z,6.72
2022-10-13T06:19:06.222Z,6.95
2022-10-13T06:21:54.348Z,5.78
2022-10-13T06:24:41.161Z,6.45
2022-10-13T06:27:29.349Z,6.05
2022-10-13T06:30:16.139Z,4.97
2022-10-13T06:33:04.397Z,6.03
2022-10-13T06:35:52.819Z,5.93
2022-10-13T06:38:41.390Z,5.38
2022-10-13T06:41:28.136Z,6.57
2022-10-13T06:44:16.475Z,6.72
2022-10-13T06:47:05.333Z,5.88
2022-10-13T06:49:53.384Z,7.88
2022-10-13T06:52:40.249Z,8.65
2022-10-13T06:55:28.404Z,6.25
2022-10-13T06:58:15.111Z,6.97
2022-10-13T07:01:03.451Z,7.03
2022-10-13T07:03:51.537Z,7.47
2022-10-13T07:06:40.393Z,5.75
2022-10-13T07:09:27.331Z,7.65
2022-10-13T07:12:16.360Z,7.53
2022-10-13T07:15:03.367Z,6.30
2022-10-13T07:17:53.377Z,5.13
2022-10-13T07:20:40.212Z,6.47
2022-10-13T07:23:29.447Z,5.80
2022-10-13T07:26:16.573Z,7.78
2022-10-13T07:29:05.362Z,8.40
2022-10-13T07:31:52.176Z,5.97
2022-10-13T07:34:40.381Z,5.18
2022-10-13T07:37:27.402Z,5.50
2022-10-13T07:40:15.356Z,7.97
2022-10-13T07:43:02.730Z,6.03
2022-10-13T07:45:51.383Z,9.48
2022-10-13T07:48:38.219Z,6.75
2022-10-13T07:51:26.336Z,10.07
2022-10-13T07:54:13.135Z,9.30
2022-10-13T07:57:01.369Z,10.52
2022-10-13T07:59:48.175Z,13.43
2022-10-13T08:02:36.370Z,14.13
2022-10-13T08:05:23.247Z,17.30
2022-10-13T08:08:11.412Z,18.60
2022-10-13T08:11:06.756Z,15.40
2022-10-13T08:13:57.428Z,17.90
2022-10-13T08:16:48.673Z,15.88
2022-10-13T08:19:39.461Z,16.75
2022-10-13T08:22:28.333Z,17.35
2022-10-13T08:25:17.338Z,19.92
2022-10-13T08:28:04.522Z,18.13
2022-10-13T08:30:53.461Z,18.55
2022-10-13T08:33:41.416Z,23.58
2022-10-13T08:39:17.077Z,19.88
2022-10-13T08:42:14.320Z,19.80
2022-10-13T08:45:36.400Z,22.02
2022-10-13T08:48:37.365Z,19.95
2022-10-13T08:51:24.107Z,21.58
2022-10-13T08:54:16.424Z,19.70
2022-10-13T08:57:05.210Z,20.33
2022-10-13T08:59:54.392Z,23.98
2022-10-13T09:02:45.236Z,22.13
2022-10-13T09:05:56.338Z,19.73
2022-10-13T09:08:53.430Z,19.10
2022-10-13T09:11:43.165Z,17.85
2022-10-13T09:14:34.123Z,23.70
2022-10-13T09:17:26.993Z,19.38
2022-10-13T09:20:23.635Z,20.30
2022-10-13T09:23:22.846Z,19.38
2022-10-13T09:26:22.041Z,17.77
2022-10-13T09:29:11.877Z,19.92
2022-10-13T09:32:21.771Z,17.67
2022-10-13T09:35:22.775Z,18.38
2022-10-13T09:38:20.134Z,19.20
2022-10-13T09:41:09.695Z,18.27
2022-10-13T09:43:56.468Z,16.63
2022-10-13T09:46:59.264Z,16.02
2022-10-13T09:49:46.331Z,21.85
2022-10-13T09:52:33.231Z,19.25
2022-10-13T09:55:32.625Z,17.53
2022-10-13T09:58:24.353Z,15.95
2022-10-13T10:01:20.964Z,17.90
2022-10-13T10:04:15.418Z,20.50
2022-10-13T10:07:16.037Z,16.80
2022-10-13T10:10:20.328Z,21.83
2022-10-13T10:13:12.228Z,16.55
2022-10-13T10:16:13.719Z,21.13
2022-10-13T10:19:03.608Z,18.90
2022-10-13T10:22:04.628Z,18.45
2022-10-13T10:25:23.798Z,18.48
2022-10-13T10:28:13.349Z,17.42
2022-10-13T10:31:18.974Z,17.83
2022-10-13T10:34:05.720Z,14.77
2022-10-13T10:37:10.981Z,16.23
2022-10-13T10:40:36.808Z,11.90
2022-10-13T10:43:53.212Z,11.82
2022-10-13T10:46:47.945Z,13.07
2022-10-13T10:49:39.375Z,10.43
2022-10-13T10:53:07.931Z,10.27
2022-10-13T10:56:09.575Z,11.70
2022-10-13T10:59:02.262Z,10.02
2022-10-13T11:02:01.112Z,11.15
2022-10-13T11:04:50.093Z,11.07
2022-10-13T11:07:39.887Z,10.40
2022-10-13T11:10:27.725Z,9.10
2022-10-13T11:13:19.251Z,11.27
2022-10-13T11:16:38.066Z,14.13
2022-10-13T11:19:28.101Z,12.77
2022-10-13T11:22:22.162Z,10.02
2022-10-13T11:25:35.647Z,11.75
2022-10-13T11:28:22.611Z,14.95
2022-10-13T11:31:15.515Z,12.18
2022-10-13T11:34:02.588Z,12.95
2022-10-13T11:36:55.664Z,14.93
2022-10-13T11:40:18.105Z,9.20
2022-10-13T11:43:17.042Z,12.82
2022-10-13T11:46:41.443Z,8.98
2022-10-13T11:49:40.168Z,5.40
2022-10-13T11:52:45.606Z,3.60
2022-10-13T11:55:54.758Z,5.88
2022-10-13T11:58:42.972Z,2.95
2022-10-13T12:01:29.893Z,3.08
2022-10-13T12:04:20.927Z,6.70
2022-10-13T12:07:10.705Z,4.75
2022-10-13T12:09:58.790Z,4.30
2022-10-13T12:12:49.531Z,3.67
2022-10-13T12:15:39.867Z,4.43
2022-10-13T12:18:34.995Z,3.83
2022-10-13T12:21:23.300Z,4.43
2022-10-13T12:24:12.954Z,3.53
2022-10-13T12:27:09.594Z,3.63
2022-10-13T12:29:56.357Z,3.00
2022-10-13T12:32:50.449Z,3.90
2022-10-13T12:35:37.340Z,3.38
2022-10-13T12:38:24.407Z,3.83
2022-10-13T12:41:11.911Z,2.55
2022-10-13T12:44:01.189Z,3.28
2022-10-13T12:46:53.648Z,2.80
2022-10-13T12:49:40.546Z,3.83
2022-10-13T12:52:27.709Z,4.90
2022-10-13T12:55:18.153Z,4.00
2022-10-13T12:58:05.013Z,3.10
2022-10-13T13:00:58.059Z,2.20
2022-10-13T13:03:44.845Z,3.00
2022-10-13T13:06:34.921Z,3.50
2022-10-13T13:09:30.459Z,4.25
2022-10-13T13:12:23.715Z,4.03
2022-10-13T13:15:25.289Z,4.03
2022-10-13T13:18:27.307Z,2.70
2022-10-13T13:21:16.222Z,2.80
2022-10-13T13:24:04.324Z,2.22
2022-10-13T13:27:23.653Z,3.22
2022-10-13T13:30:16.440Z,2.72
2022-10-13T13:33:03.371Z,2.45
2022-10-13T13:35:50.445Z,3.13
2022-10-13T13:38:37.215Z,2.03
2022-10-13T13:41:27.749Z,3.17
2022-10-13T13:44:33.224Z,2.28
2022-10-13T13:47:24.065Z,5.50
2022-10-13T13:50:21.112Z,2.70
2022-10-13T13:53:07.929Z,2.92
2022-10-13T13:55:54.945Z,2.53
2022-10-13T13:58:42.095Z,2.17
2022-10-13T14:01:28.944Z,2.72
2022-10-13T14:04:15.794Z,3.33
2022-10-13T14:07:02.716Z,2.70
2022-10-13T14:09:49.468Z,3.13
2022-10-13T14:12:36.651Z,3.10
2022-10-13T14:15:27.220Z,4.20
2022-10-13T14:18:16.436Z,4.53
2022-10-13T14:21:06.308Z,6.72
2022-10-13T14:23:53.073Z,7.88
2022-10-13T14:26:40.232Z,5.20
2022-10-13T14:29:27.028Z,3.47
2022-10-13T14:32:13.856Z,3.83
2022-10-13T14:35:00.889Z,2.57
2022-10-13T14:37:47.693Z,2.67
2022-10-13T14:40:34.565Z,2.53
2022-10-13T14:43:21.334Z,4.93
2022-10-13T14:46:08.204Z,3.45
2022-10-13T14:48:56.550Z,4.00
2022-10-13T14:51:43.334Z,4.95
2022-10-13T14:54:30.154Z,3.72
2022-10-13T14:57:16.960Z,5.18
2022-10-13T15:00:04.621Z,3.63
2022-10-13T15:02:51.406Z,4.05
2022-10-13T15:05:38.813Z,4.10
2022-10-13T15:08:25.777Z,3.97
2022-10-13T15:11:13.286Z,4.80
2022-10-13T15:14:00.259Z,5.72
2022-10-13T15:16:47.016Z,2.33
2022-10-13T15:19:33.797Z,4.25
2022-10-13T15:22:20.804Z,3.63
2022-10-13T15:25:10.360Z,4.22
2022-10-13T15:27:57.116Z,3.45
2022-10-13T15:30:43.837Z,2.90
2022-10-13T15:33:31.334Z,4.20
2022-10-13T15:36:19.061Z,4.55
2022-10-13T15:39:07.139Z,6.47
2022-10-13T15:41:54.008Z,5.50
2022-10-13T15:45:08.084Z,7.13
2022-10-13T15:47:47.567Z,3.72
2022-10-13T15:50:38.414Z,3.03
2022-10-13T15:53:25.761Z,5.38
2022-10-13T15:56:12.677Z,6.78
2022-10-13T15:58:59.388Z,4.80
2022-10-13T16:01:46.215Z,6.18
2022-10-13T16:04:37.326Z,10.38
2022-10-13T16:07:24.844Z,6.80
2022-10-13T16:10:13.531Z,4.93
2022-10-13T16:13:00.375Z,7.70
2022-10-13T16:15:58.110Z,9.25
2022-10-13T16:18:45.722Z,9.63
2022-10-13T16:21:32.546Z,23.55
2022-10-13T16:24:19.455Z,17.00
2022-10-13T16:27:07.436Z,12.60
2022-10-13T16:29:54.285Z,6.72
2022-10-13T16:32:41.186Z,5.43
2022-10-13T16:35:28.110Z,5.10
2022-10-13T16:38:14.820Z,3.93
2022-10-13T16:41:11.184Z,4.40
2022-10-13T16:43:57.941Z,3.30
2022-10-13T16:46:45.164Z,4.38
2022-10-13T16:49:32.168Z,4.05
2022-10-13T16:52:18.966Z,5.60
2022-10-13T16:55:06.657Z,4.05
2022-10-13T16:57:53.488Z,5.15
2022-10-13T17:00:40.944Z,8.65
2022-10-13T17:03:27.890Z,9.55
2022-10-13T17:06:15.149Z,8.70
2022-10-13T17:09:03.402Z,5.93
2022-10-13T17:11:50.221Z,6.20
2022-10-13T17:14:37.054Z,5.85
2022-10-13T17:17:23.915Z,4.20
2022-10-13T17:20:13.175Z,4.80
2022-10-13T17:23:00.042Z,5.47
2022-10-13T17:25:47.262Z,6.55
2022-10-13T17:28:35.270Z,7.43
2022-10-13T17:31:24.016Z,15.88
2022-10-13T17:34:10.799Z,12.82
2022-10-13T17:36:59.306Z,9.38
2022-10-13T17:39:46.227Z,10.38
2022-10-13T17:42:34.241Z,8.45
2022-10-13T17:45:21.444Z,7.05
2022-10-13T17:48:08.257Z,5.85
2022-10-13T17:50:55.014Z,9.65
2022-10-13T17:53:43.312Z,7.80
2022-10-13T17:56:30.273Z,6.70
2022-10-13T17:59:17.899Z,7.23
2022-10-13T18:02:04.724Z,6.88
2022-10-13T18:04:51.572Z,5.82
2022-10-13T18:07:38.379Z,7.30
2022-10-13T18:10:25.189Z,6.72
2022-10-13T18:13:12.058Z,8.30
2022-10-13T18:16:15.009Z,7.80
2022-10-13T18:19:02.077Z,10.43
2022-10-13T18:21:51.232Z,10.30
2022-10-13T18:24:38.032Z,13.57
2022-10-13T18:27:26.256Z,78.90
2022-10-13T18:30:13.939Z,59.83
2022-10-13T18:33:04.205Z,36.35
2022-10-13T18:35:50.951Z,25.90
2022-10-13T18:38:39.236Z,31.83
2022-10-13T18:41:26.115Z,26.77
2022-10-13T18:44:15.285Z,21.45
2022-10-13T18:47:02.161Z,14.85
2022-10-13T18:49:50.195Z,16.75
2022-10-13T18:52:37.013Z,21.38
2022-10-13T18:55:25.185Z,14.20
2022-10-13T18:58:12.605Z,10.02
2022-10-13T19:01:05.084Z,9.43
2022-10-13T19:03:52.824Z,9.75
2022-10-13T19:06:40.536Z,11.07
2022-10-13T19:09:27.416Z,9.55
2022-10-13T19:12:14.420Z,8.23
2022-10-13T19:15:01.417Z,5.53
2022-10-13T19:17:50.322Z,4.90
2022-10-13T19:20:37.068Z,5.53
2022-10-13T19:23:24.389Z,5.25
2022-10-13T19:26:17.932Z,4.05
2022-10-13T19:29:10.969Z,4.07
2022-10-13T19:31:57.751Z,6.38
2022-10-13T19:34:44.498Z,3.53
2022-10-13T19:37:32.212Z,4.47
2022-10-13T19:40:19.272Z,6.18
2022-10-13T19:43:06.004Z,5.03
2022-10-13T19:45:57.464Z,5.68
2022-10-13T19:48:48.027Z,8.25
2022-10-13T19:51:35.069Z,7.82
2022-10-13T19:54:23.214Z,8.03
2022-10-13T19:57:10.019Z,5.20
2022-10-13T19:59:56.813Z,8.27
2022-10-13T20:02:43.659Z,5.10
2022-10-13T20:05:30.980Z,8.27
2022-10-13T20:08:21.557Z,5.32
2022-10-13T20:11:12.339Z,6.47
2022-10-13T20:14:02.004Z,6.40
2022-10-13T20:16:51.437Z,6.28
2022-10-13T20:19:40.871Z,7.05
2022-10-13T20:22:27.828Z,7.72
2022-10-13T20:25:19.590Z,10.57
2022-10-13T20:28:06.666Z,6.18
2022-10-13T20:30:53.479Z,6.63
2022-10-13T20:33:40.736Z,5.88
2022-10-13T20:36:28.698Z,5.45
2022-10-13T20:39:16.040Z,4.50
2022-10-13T20:42:03.501Z,7.10
2022-10-13T20:44:50.288Z,5.43
2022-10-13T20:47:37.108Z,4.72
2022-10-13T20:50:23.870Z,5.18
2022-10-13T20:53:18.899Z,4.50
2022-10-13T20:56:12.731Z,4.40
2022-10-13T20:59:05.095Z,5.03
2022-10-13T21:01:51.892Z,7.28
2022-10-13T21:04:38.711Z,4.10
2022-10-13T21:07:25.570Z,4.85
2022-10-13T21:10:14.178Z,4.72
2022-10-13T21:13:01.037Z,4.03
2022-10-13T21:15:50.209Z,5.15
2022-10-13T21:18:37.528Z,5.88
2022-10-13T21:21:31.144Z,8.70
2022-10-13T21:24:17.934Z,5.18
2022-10-13T21:27:06.167Z,6.45
2022-10-13T21:29:52.976Z,13.40
2022-10-13T21:32:41.192Z,10.82
2022-10-13T21:35:27.986Z,9.90
2022-10-13T21:38:16.224Z,9.23
2022-10-13T21:41:07.485Z,7.78
2022-10-13T21:43:56.178Z,7.00
2022-10-13T21:46:43.020Z,6.03
2022-10-13T21:49:31.139Z,5.82
2022-10-13T21:52:17.889Z,6.13
2022-10-13T21:55:08.184Z,5.32
2022-10-13T21:57:55.023Z,6.50
2022-10-13T22:00:43.314Z,6.68
2022-10-13T22:03:30.780Z,5.95
2022-10-13T22:06:20.171Z,5.85
2022-10-13T22:09:07.282Z,5.78
2022-10-13T22:11:56.696Z,6.25
2022-10-13T22:14:43.531Z,6.53
2022-10-13T22:17:32.125Z,6.28
2022-10-13T22:20:18.876Z,5.93
2022-10-13T22:23:07.113Z,7.30
2022-10-13T22:25:54.277Z,5.90
2022-10-13T22:28:43.194Z,6.00
2022-10-13T22:31:30.660Z,5.32
2022-10-13T22:34:19.129Z,8.30
2022-10-13T22:37:05.882Z,5.38
2022-10-13T22:39:54.144Z,6.57
2022-10-13T22:42:40.885Z,5.15
2022-10-13T22:45:29.235Z,5.15
2022-10-13T22:48:16.005Z,4.38
2022-10-13T22:51:06.151Z,6.15
2022-10-13T22:53:53.002Z,6.45
2022-10-13T22:56:42.103Z,6.97
2022-10-13T22:59:28.940Z,7.38
2022-10-13T23:02:17.123Z,5.43
2022-10-13T23:05:04.100Z,6.80
2022-10-13T23:07:52.157Z,5.27
2022-10-13T23:10:39.292Z,5.95
2022-10-13T23:13:28.142Z,5.43
2022-10-13T23:16:20.625Z,7.20
2022-10-13T23:19:09.160Z,7.85
2022-10-13T23:21:55.933Z,4.95
2022-10-13T23:24:44.209Z,5.18
2022-10-13T23:27:31.006Z,5.68
2022-10-13T23:30:19.155Z,5.18
2022-10-13T23:33:05.879Z,4.60
2022-10-13T23:36:01.106Z,5.38
2022-10-13T23:38:48.333Z,4.45
2022-10-13T23:41:37.105Z,6.40
2022-10-13T23:44:23.876Z,4.63
2022-10-13T23:47:12.095Z,4.95
2022-10-13T23:49:58.927Z,4.82
2022-10-13T23:52:47.125Z,5.30
2022-10-13T23:55:38.087Z,6.43
2022-10-13T23:58:26.154Z,4.90
